sensor_id;sensor_type;location;lat;lon;timestamp;temperature;humidity
7325;DHT22;3703;48.016;7.802;2022-08-11T00:02:26;23.50;1.80
7325;DHT22;3703;48.016;7.802;2022-08-11T00:05:18;23.50;1.80
7325;DHT22;3703;48.016;7.802;2022-08-11T00:08:07;23.40;2.80
7325;DHT22;3703;48.016;7.802;2022-08-11T00:10:58;23.40;4.80
7325;DHT22;3703;48.016;7.802;2022-08-11T00:13:49;23.40;4.10
7325;DHT22;3703;48.016;7.802;2022-08-11T00:16:38;23.30;5.90
7325;DHT22;3703;48.016;7.802;2022-08-11T00:19:31;23.30;7.10
7325;DHT22;3703;48.016;7.802;2022-08-11T00:22:21;23.30;8.00
7325;DHT22;3703;48.016;7.802;2022-08-11T00:25:11;23.30;8.60
7325;DHT22;3703;48.016;7.802;2022-08-11T00:28:00;23.30;10.00
7325;DHT22;3703;48.016;7.802;2022-08-11T00:30:49;23.20;10.40
7325;DHT22;3703;48.016;7.802;2022-08-11T00:33:40;23.30;11.90
7325;DHT22;3703;48.016;7.802;2022-08-11T00:36:39;23.30;13.80
7325;DHT22;3703;48.016;7.802;2022-08-11T00:39:32;23.30;14.00
7325;DHT22;3703;48.016;7.802;2022-08-11T00:42:26;23.30;14.70
7325;DHT22;3703;48.016;7.802;2022-08-11T00:45:31;23.30;16.20
7325;DHT22;3703;48.016;7.802;2022-08-11T00:48:27;23.30;21.00
7325;DHT22;3703;48.016;7.802;2022-08-11T00:51:23;23.20;20.20
7325;DHT22;3703;48.016;7.802;2022-08-11T00:54:55;23.00;19.90
7325;DHT22;3703;48.016;7.802;2022-08-11T00:58:18;23.00;22.40
7325;DHT22;3703;48.016;7.802;2022-08-11T01:01:33;23.00;42.40
7325;DHT22;3703;48.016;7.802;2022-08-11T01:16:11;22.90;31.50
7325;DHT22;3703;48.016;7.802;2022-08-11T01:19:46;22.90;35.60
7325;DHT22;3703;48.016;7.802;2022-08-11T01:30:57;22.70;57.90
7325;DHT22;3703;48.016;7.802;2022-08-11T01:42:20;22.50;88.30
7325;DHT22;3703;48.016;7.802;2022-08-11T01:45:49;22.40;90.30
7325;DHT22;3703;48.016;7.802;2022-08-11T01:48:42;22.50;93.40
7325;DHT22;3703;48.016;7.802;2022-08-11T01:52:00;22.40;92.90
7325;DHT22;3703;48.016;7.802;2022-08-11T01:55:05;22.40;94.10
7325;DHT22;3703;48.016;7.802;2022-08-11T01:58:04;22.40;95.20
7325;DHT22;3703;48.016;7.802;2022-08-11T02:01:01;22.40;96.10
7325;DHT22;3703;48.016;7.802;2022-08-11T02:04:11;22.40;96.90
7325;DHT22;3703;48.016;7.802;2022-08-11T02:07:18;22.30;96.50
7325;DHT22;3703;48.016;7.802;2022-08-11T02:10:22;22.40;98.70
7325;DHT22;3703;48.016;7.802;2022-08-11T02:13:36;22.30;99.90
7325;DHT22;3703;48.016;7.802;2022-08-11T02:16:39;22.40;99.90
7325;DHT22;3703;48.016;7.802;2022-08-11T02:19:41;22.40;99.90
7325;DHT22;3703;48.016;7.802;2022-08-11T02:23:13;22.30;99.90
7325;DHT22;3703;48.016;7.802;2022-08-11T02:26:33;22.30;99.90
7325;DHT22;3703;48.016;7.802;2022-08-11T02:29:32;22.30;99.90
7325;DHT22;3703;48.016;7.802;2022-08-11T02:32:35;22.20;99.90
7325;DHT22;3703;48.016;7.802;2022-08-11T02:35:49;22.20;99.90
7325;DHT22;3703;48.016;7.802;2022-08-11T02:38:50;22.10;99.90
7325;DHT22;3703;48.016;7.802;2022-08-11T02:41:49;22.10;99.90
7325;DHT22;3703;48.016;7.802;2022-08-11T02:45:08;22.20;99.90
7325;DHT22;3703;48.016;7.802;2022-08-11T02:48:07;21.90;99.90
7325;DHT22;3703;48.016;7.802;2022-08-11T02:51:26;22.00;99.90
7325;DHT22;3703;48.016;7.802;2022-08-11T02:54:26;22.00;99.90
7325;DHT22;3703;48.016;7.802;2022-08-11T02:57:21;21.90;99.90
7325;DHT22;3703;48.016;7.802;2022-08-11T03:00:17;21.90;99.90
7325;DHT22;3703;48.016;7.802;2022-08-11T03:03:14;22.00;99.90
7325;DHT22;3703;48.016;7.802;2022-08-11T03:06:10;22.00;99.90
7325;DHT22;3703;48.016;7.802;2022-08-11T03:09:05;21.90;99.90
7325;DHT22;3703;48.016;7.802;2022-08-11T03:12:04;22.00;99.90
7325;DHT22;3703;48.016;7.802;2022-08-11T03:15:17;21.90;99.90
7325;DHT22;3703;48.016;7.802;2022-08-11T03:18:32;22.00;99.90
7325;DHT22;3703;48.016;7.802;2022-08-11T03:21:28;22.00;99.90
7325;DHT22;3703;48.016;7.802;2022-08-11T03:24:24;22.00;99.90
7325;DHT22;3703;48.016;7.802;2022-08-11T03:27:30;21.90;99.90
7325;DHT22;3703;48.016;7.802;2022-08-11T03:30:26;22.00;99.90
7325;DHT22;3703;48.016;7.802;2022-08-11T03:33:25;21.90;99.90
7325;DHT22;3703;48.016;7.802;2022-08-11T03:37:04;21.90;99.90
7325;DHT22;3703;48.016;7.802;2022-08-11T03:40:40;21.90;99.90
7325;DHT22;3703;48.016;7.802;2022-08-11T03:44:02;21.90;99.90
7325;DHT22;3703;48.016;7.802;2022-08-11T03:47:20;21.80;99.90
7325;DHT22;3703;48.016;7.802;2022-08-11T03:50:34;21.80;99.90
7325;DHT22;3703;48.016;7.802;2022-08-11T03:57:44;21.60;99.90
7325;DHT22;3703;48.016;7.802;2022-08-11T04:05:04;21.50;99.90
7325;DHT22;3703;48.016;7.802;2022-08-11T04:08:39;21.40;99.90
7325;DHT22;3703;48.016;7.802;2022-08-11T04:16:09;21.10;99.90
7325;DHT22;3703;48.016;7.802;2022-08-11T04:19:29;21.00;99.90
7325;DHT22;3703;48.016;7.802;2022-08-11T04:22:48;20.90;99.90
7325;DHT22;3703;48.016;7.802;2022-08-11T04:29:19;20.90;99.90
7325;DHT22;3703;48.016;7.802;2022-08-11T04:32:35;20.90;99.90
7325;DHT22;3703;48.016;7.802;2022-08-11T04:35:59;21.00;99.90
7325;DHT22;3703;48.016;7.802;2022-08-11T04:39:03;21.00;1.00
7325;DHT22;3703;48.016;7.802;2022-08-11T04:42:13;20.90;1.00
7325;DHT22;3703;48.016;7.802;2022-08-11T04:46:14;20.90;1.00
7325;DHT22;3703;48.016;7.802;2022-08-11T04:49:55;20.80;1.00
7325;DHT22;3703;48.016;7.802;2022-08-11T04:53:25;20.60;1.00
7325;DHT22;3703;48.016;7.802;2022-08-11T04:56:39;20.50;1.00
7325;DHT22;3703;48.016;7.802;2022-08-11T05:00:02;20.50;1.00
7325;DHT22;3703;48.016;7.802;2022-08-11T05:03:42;20.50;1.00
7325;DHT22;3703;48.016;7.802;2022-08-11T05:07:13;20.50;1.00
7325;DHT22;3703;48.016;7.802;2022-08-11T05:10:27;20.70;1.00
7325;DHT22;3703;48.016;7.802;2022-08-11T05:13:27;20.90;1.00
7325;DHT22;3703;48.016;7.802;2022-08-11T05:16:40;21.00;1.00
7325;DHT22;3703;48.016;7.802;2022-08-11T05:19:47;20.90;1.00
7325;DHT22;3703;48.016;7.802;2022-08-11T05:22:53;20.90;1.00
7325;DHT22;3703;48.016;7.802;2022-08-11T05:26:01;20.90;11.60
7325;DHT22;3703;48.016;7.802;2022-08-11T05:29:35;20.80;11.90
7325;DHT22;3703;48.016;7.802;2022-08-11T05:32:46;20.90;3.30
7325;DHT22;3703;48.016;7.802;2022-08-11T05:36:05;20.90;32.10
7325;DHT22;3703;48.016;7.802;2022-08-11T05:39:00;21.00;36.10
7325;DHT22;3703;48.016;7.802;2022-08-11T05:42:09;23.40;99.90
7325;DHT22;3703;48.016;7.802;2022-08-11T05:45:16;21.50;99.90
7325;DHT22;3703;48.016;7.802;2022-08-11T05:48:22;21.80;99.90
7325;DHT22;3703;48.016;7.802;2022-08-11T05:51:35;21.90;99.90
7325;DHT22;3703;48.016;7.802;2022-08-11T05:54:41;22.10;99.90
7325;DHT22;3703;48.016;7.802;2022-08-11T05:57:53;22.40;99.90
7325;DHT22;3703;48.016;7.802;2022-08-11T06:00:43;22.10;99.90
7325;DHT22;3703;48.016;7.802;2022-08-11T06:03:33;22.10;99.90
7325;DHT22;3703;48.016;7.802;2022-08-11T06:06:56;22.30;99.90
7325;DHT22;3703;48.016;7.802;2022-08-11T06:09:47;22.30;99.90
7325;DHT22;3703;48.016;7.802;2022-08-11T06:12:36;22.30;99.90
7325;DHT22;3703;48.016;7.802;2022-08-11T06:15:27;22.30;99.90
7325;DHT22;3703;48.016;7.802;2022-08-11T06:18:18;22.30;99.90
7325;DHT22;3703;48.016;7.802;2022-08-11T06:21:09;22.30;99.90
7325;DHT22;3703;48.016;7.802;2022-08-11T06:23:58;22.00;99.90
7325;DHT22;3703;48.016;7.802;2022-08-11T06:26:51;22.30;99.90
7325;DHT22;3703;48.016;7.802;2022-08-11T06:29:48;22.50;99.90
7325;DHT22;3703;48.016;7.802;2022-08-11T06:32:40;19.80;99.90
7325;DHT22;3703;48.016;7.802;2022-08-11T06:35:37;22.50;99.90
7325;DHT22;3703;48.016;7.802;2022-08-11T06:38:45;22.70;99.90
7325;DHT22;3703;48.016;7.802;2022-08-11T06:41:44;22.70;92.00
7325;DHT22;3703;48.016;7.802;2022-08-11T06:44:40;22.90;99.90
7325;DHT22;3703;48.016;7.802;2022-08-11T06:47:28;23.00;94.90
7325;DHT22;3703;48.016;7.802;2022-08-11T06:50:20;23.10;54.00
7325;DHT22;3703;48.016;7.802;2022-08-11T06:53:32;23.10;25.40
7325;DHT22;3703;48.016;7.802;2022-08-11T06:56:24;23.20;37.00
7325;DHT22;3703;48.016;7.802;2022-08-11T06:59:31;23.30;33.50
7325;DHT22;3703;48.016;7.802;2022-08-11T07:02:44;23.40;99.90
7325;DHT22;3703;48.016;7.802;2022-08-11T07:05:44;23.40;99.90
7325;DHT22;3703;48.016;7.802;2022-08-11T07:12:39;22.50;14.60
7325;DHT22;3703;48.016;7.802;2022-08-11T07:15:47;23.70;15.70
7325;DHT22;3703;48.016;7.802;2022-08-11T07:18:36;23.80;10.60
7325;DHT22;3703;48.016;7.802;2022-08-11T07:21:45;24.00;1.00
7325;DHT22;3703;48.016;7.802;2022-08-11T07:24:54;24.10;1.00
7325;DHT22;3703;48.016;7.802;2022-08-11T07:28:06;24.10;1.00
7325;DHT22;3703;48.016;7.802;2022-08-11T07:31:19;24.10;1.00
7325;DHT22;3703;48.016;7.802;2022-08-11T07:34:18;24.20;1.00
7325;DHT22;3703;48.016;7.802;2022-08-11T07:37:11;24.30;1.00
7325;DHT22;3703;48.016;7.802;2022-08-11T07:40:03;24.40;1.00
7325;DHT22;3703;48.016;7.802;2022-08-11T07:42:53;24.40;1.00
7325;DHT22;3703;48.016;7.802;2022-08-11T07:45:41;24.50;1.00
7325;DHT22;3703;48.016;7.802;2022-08-11T07:48:47;24.70;1.00
7325;DHT22;3703;48.016;7.802;2022-08-11T07:51:53;24.80;1.00
7325;DHT22;3703;48.016;7.802;2022-08-11T07:55:03;24.60;1.00
7325;DHT22;3703;48.016;7.802;2022-08-11T07:57:53;24.70;1.00
7325;DHT22;3703;48.016;7.802;2022-08-11T08:00:59;24.70;1.00
7325;DHT22;3703;48.016;7.802;2022-08-11T08:04:07;24.70;1.00
7325;DHT22;3703;48.016;7.802;2022-08-11T08:07:20;24.80;1.00
7325;DHT22;3703;48.016;7.802;2022-08-11T08:10:27;24.90;1.00
7325;DHT22;3703;48.016;7.802;2022-08-11T08:13:34;24.50;1.00
7325;DHT22;3703;48.016;7.802;2022-08-11T08:16:39;25.20;1.00
7325;DHT22;3703;48.016;7.802;2022-08-11T08:19:47;25.30;1.00
7325;DHT22;3703;48.016;7.802;2022-08-11T08:22:35;25.20;1.00
7325;DHT22;3703;48.016;7.802;2022-08-11T08:25:26;25.20;1.00
7325;DHT22;3703;48.016;7.802;2022-08-11T08:28:16;25.30;1.00
7325;DHT22;3703;48.016;7.802;2022-08-11T08:31:06;25.50;1.00
7325;DHT22;3703;48.016;7.802;2022-08-11T08:33:53;25.40;1.00
7325;DHT22;3703;48.016;7.802;2022-08-11T08:36:42;24.50;1.00
7325;DHT22;3703;48.016;7.802;2022-08-11T08:39:30;25.60;1.00
7325;DHT22;3703;48.016;7.802;2022-08-11T08:42:23;25.70;1.00
7325;DHT22;3703;48.016;7.802;2022-08-11T08:45:13;25.70;1.00
7325;DHT22;3703;48.016;7.802;2022-08-11T08:48:15;25.80;1.00
7325;DHT22;3703;48.016;7.802;2022-08-11T08:51:10;25.80;99.90
7325;DHT22;3703;48.016;7.802;2022-08-11T08:54:18;25.70;99.90
7325;DHT22;3703;48.016;7.802;2022-08-11T08:57:09;25.90;99.90
7325;DHT22;3703;48.016;7.802;2022-08-11T09:00:02;26.20;1.00
7325;DHT22;3703;48.016;7.802;2022-08-11T09:02:51;26.30;99.90
7325;DHT22;3703;48.016;7.802;2022-08-11T09:05:39;26.50;99.90
7325;DHT22;3703;48.016;7.802;2022-08-11T09:08:30;26.50;99.90
7325;DHT22;3703;48.016;7.802;2022-08-11T09:11:22;26.50;99.90
7325;DHT22;3703;48.016;7.802;2022-08-11T09:14:37;26.60;99.90
7325;DHT22;3703;48.016;7.802;2022-08-11T09:17:47;26.50;99.90
7325;DHT22;3703;48.016;7.802;2022-08-11T09:20:37;26.40;99.90
7325;DHT22;3703;48.016;7.802;2022-08-11T09:23:25;26.60;99.90
7325;DHT22;3703;48.016;7.802;2022-08-11T09:26:31;26.80;99.90
7325;DHT22;3703;48.016;7.802;2022-08-11T09:29:37;27.10;99.90
7325;DHT22;3703;48.016;7.802;2022-08-11T09:32:25;27.40;99.90
7325;DHT22;3703;48.016;7.802;2022-08-11T09:35:15;27.60;99.90
7325;DHT22;3703;48.016;7.802;2022-08-11T09:38:05;27.70;99.90
7325;DHT22;3703;48.016;7.802;2022-08-11T09:41:11;27.90;99.90
7325;DHT22;3703;48.016;7.802;2022-08-11T09:44:00;28.10;99.90
7325;DHT22;3703;48.016;7.802;2022-08-11T09:47:06;28.20;99.90
7325;DHT22;3703;48.016;7.802;2022-08-11T09:50:01;28.20;99.90
7325;DHT22;3703;48.016;7.802;2022-08-11T09:52:51;28.50;99.90
7325;DHT22;3703;48.016;7.802;2022-08-11T09:55:38;28.40;99.90
7325;DHT22;3703;48.016;7.802;2022-08-11T09:58:26;28.50;99.90
7325;DHT22;3703;48.016;7.802;2022-08-11T10:01:15;28.80;99.90
7325;DHT22;3703;48.016;7.802;2022-08-11T10:04:14;28.90;99.90
7325;DHT22;3703;48.016;7.802;2022-08-11T10:07:04;29.10;99.90
7325;DHT22;3703;48.016;7.802;2022-08-11T10:10:00;29.20;99.90
7325;DHT22;3703;48.016;7.802;2022-08-11T10:12:55;29.50;99.90
7325;DHT22;3703;48.016;7.802;2022-08-11T10:15:45;29.70;99.90
7325;DHT22;3703;48.016;7.802;2022-08-11T10:18:36;29.50;99.90
7325;DHT22;3703;48.016;7.802;2022-08-11T10:21:31;29.70;99.90
7325;DHT22;3703;48.016;7.802;2022-08-11T10:24:23;29.90;99.90
7325;DHT22;3703;48.016;7.802;2022-08-11T10:27:30;29.90;99.90
7325;DHT22;3703;48.016;7.802;2022-08-11T10:30:18;29.90;99.90
7325;DHT22;3703;48.016;7.802;2022-08-11T10:33:23;30.10;99.90
7325;DHT22;3703;48.016;7.802;2022-08-11T10:36:31;30.20;99.90
7325;DHT22;3703;48.016;7.802;2022-08-11T10:39:21;30.20;99.90
7325;DHT22;3703;48.016;7.802;2022-08-11T10:42:09;30.20;99.90
7325;DHT22;3703;48.016;7.802;2022-08-11T10:45:20;30.20;99.90
7325;DHT22;3703;48.016;7.802;2022-08-11T10:48:27;30.40;99.90
7325;DHT22;3703;48.016;7.802;2022-08-11T10:51:15;30.70;99.90
7325;DHT22;3703;48.016;7.802;2022-08-11T10:54:04;30.90;99.90
7325;DHT22;3703;48.016;7.802;2022-08-11T10:57:09;31.10;99.90
7325;DHT22;3703;48.016;7.802;2022-08-11T11:00:15;31.20;99.90
7325;DHT22;3703;48.016;7.802;2022-08-11T11:03:06;31.30;99.90
7325;DHT22;3703;48.016;7.802;2022-08-11T11:05:59;31.40;99.90
7325;DHT22;3703;48.016;7.802;2022-08-11T11:08:57;31.50;99.90
7325;DHT22;3703;48.016;7.802;2022-08-11T11:11:50;31.70;99.90
7325;DHT22;3703;48.016;7.802;2022-08-11T11:14:58;31.70;99.90
7325;DHT22;3703;48.016;7.802;2022-08-11T11:18:09;31.80;99.90
7325;DHT22;3703;48.016;7.802;2022-08-11T11:21:03;31.90;99.90
7325;DHT22;3703;48.016;7.802;2022-08-11T11:27:04;31.60;91.90
7325;DHT22;3703;48.016;7.802;2022-08-11T11:30:03;31.60;89.40
7325;DHT22;3703;48.016;7.802;2022-08-11T11:33:01;31.80;93.00
7325;DHT22;3703;48.016;7.802;2022-08-11T11:36:07;31.90;91.60
7325;DHT22;3703;48.016;7.802;2022-08-11T11:39:01;31.50;71.40
7325;DHT22;3703;48.016;7.802;2022-08-11T11:41:52;31.40;59.60
7325;DHT22;3703;48.016;7.802;2022-08-11T11:44:43;31.30;58.30
7325;DHT22;3703;48.016;7.802;2022-08-11T11:47:32;31.70;68.50
7325;DHT22;3703;48.016;7.802;2022-08-11T11:50:24;32.00;75.70
7325;DHT22;3703;48.016;7.802;2022-08-11T11:53:14;32.30;79.50
7325;DHT22;3703;48.016;7.802;2022-08-11T11:56:02;32.50;74.40
7325;DHT22;3703;48.016;7.802;2022-08-11T11:58:52;32.40;58.10
7325;DHT22;3703;48.016;7.802;2022-08-11T12:01:58;32.60;59.90
7325;DHT22;3703;48.016;7.802;2022-08-11T12:04:49;32.90;87.70
7325;DHT22;3703;48.016;7.802;2022-08-11T12:07:38;33.30;59.20
7325;DHT22;3703;48.016;7.802;2022-08-11T12:10:48;33.20;58.80
7325;DHT22;3703;48.016;7.802;2022-08-11T12:13:58;33.40;55.40
7325;DHT22;3703;48.016;7.802;2022-08-11T12:16:48;33.40;48.00
7325;DHT22;3703;48.016;7.802;2022-08-11T12:19:36;33.20;41.10
7325;DHT22;3703;48.016;7.802;2022-08-11T12:22:24;33.10;34.00
7325;DHT22;3703;48.016;7.802;2022-08-11T12:25:29;33.40;38.70
7325;DHT22;3703;48.016;7.802;2022-08-11T12:28:36;33.60;36.20
7325;DHT22;3703;48.016;7.802;2022-08-11T12:31:25;33.90;35.40
7325;DHT22;3703;48.016;7.802;2022-08-11T12:34:15;34.10;30.90
7325;DHT22;3703;48.016;7.802;2022-08-11T12:37:04;34.10;26.80
7325;DHT22;3703;48.016;7.802;2022-08-11T12:39:59;34.10;26.40
7325;DHT22;3703;48.016;7.802;2022-08-11T12:43:08;34.30;28.70
7325;DHT22;3703;48.016;7.802;2022-08-11T12:46:30;34.60;28.10
7325;DHT22;3703;48.016;7.802;2022-08-11T12:49:20;34.40;17.30
7325;DHT22;3703;48.016;7.802;2022-08-11T12:52:28;34.70;17.20
7325;DHT22;3703;48.016;7.802;2022-08-11T12:55:23;34.80;14.80
7325;DHT22;3703;48.016;7.802;2022-08-11T12:58:26;34.70;7.90
7325;DHT22;3703;48.016;7.802;2022-08-11T13:01:14;34.40;2.50
7325;DHT22;3703;48.016;7.802;2022-08-11T13:04:21;34.30;1.00
7325;DHT22;3703;48.016;7.802;2022-08-11T13:07:27;34.60;1.90
7325;DHT22;3703;48.016;7.802;2022-08-11T13:10:18;34.90;2.60
7325;DHT22;3703;48.016;7.802;2022-08-11T13:13:35;35.20;2.50
7325;DHT22;3703;48.016;7.802;2022-08-11T13:16:24;35.20;1.00
7325;DHT22;3703;48.016;7.802;2022-08-11T13:19:14;35.40;1.00
7325;DHT22;3703;48.016;7.802;2022-08-11T13:22:04;35.20;1.00
7325;DHT22;3703;48.016;7.802;2022-08-11T13:24:52;35.40;1.00
7325;DHT22;3703;48.016;7.802;2022-08-11T13:27:42;35.30;1.00
7325;DHT22;3703;48.016;7.802;2022-08-11T13:30:32;35.00;1.00
7325;DHT22;3703;48.016;7.802;2022-08-11T13:33:41;34.90;1.00
7325;DHT22;3703;48.016;7.802;2022-08-11T13:36:29;35.00;1.00
7325;DHT22;3703;48.016;7.802;2022-08-11T13:39:19;35.40;1.00
7325;DHT22;3703;48.016;7.802;2022-08-11T13:42:08;35.70;1.00
7325;DHT22;3703;48.016;7.802;2022-08-11T13:44:56;36.10;1.00
7325;DHT22;3703;48.016;7.802;2022-08-11T13:47:45;36.20;1.00
7325;DHT22;3703;48.016;7.802;2022-08-11T13:50:34;36.20;1.00
7325;DHT22;3703;48.016;7.802;2022-08-11T13:53:40;35.90;1.00
7325;DHT22;3703;48.016;7.802;2022-08-11T13:56:30;35.90;1.00
7325;DHT22;3703;48.016;7.802;2022-08-11T13:59:20;36.40;1.00
7325;DHT22;3703;48.016;7.802;2022-08-11T14:02:14;36.40;1.00
7325;DHT22;3703;48.016;7.802;2022-08-11T14:05:07;36.40;1.00
7325;DHT22;3703;48.016;7.802;2022-08-11T14:08:00;36.40;1.00
7325;DHT22;3703;48.016;7.802;2022-08-11T14:10:49;36.50;1.00
7325;DHT22;3703;48.016;7.802;2022-08-11T14:14:00;36.30;1.00
7325;DHT22;3703;48.016;7.802;2022-08-11T14:16:49;36.30;1.00
7325;DHT22;3703;48.016;7.802;2022-08-11T14:19:39;36.30;1.00
7325;DHT22;3703;48.016;7.802;2022-08-11T14:22:29;36.20;1.00
7325;DHT22;3703;48.016;7.802;2022-08-11T14:25:16;36.20;1.00
7325;DHT22;3703;48.016;7.802;2022-08-11T14:28:03;35.90;1.00
7325;DHT22;3703;48.016;7.802;2022-08-11T14:30:53;36.00;1.00
7325;DHT22;3703;48.016;7.802;2022-08-11T14:33:44;36.20;1.00
7325;DHT22;3703;48.016;7.802;2022-08-11T14:36:34;36.10;1.00
7325;DHT22;3703;48.016;7.802;2022-08-11T14:39:25;35.80;1.00
7325;DHT22;3703;48.016;7.802;2022-08-11T14:42:16;35.80;1.00
7325;DHT22;3703;48.016;7.802;2022-08-11T14:45:36;35.50;1.00
7325;DHT22;3703;48.016;7.802;2022-08-11T14:48:44;35.20;1.00
7325;DHT22;3703;48.016;7.802;2022-08-11T14:51:32;35.10;1.00
7325;DHT22;3703;48.016;7.802;2022-08-11T14:54:22;35.10;1.00
7325;DHT22;3703;48.016;7.802;2022-08-11T14:57:30;35.10;1.00
7325;DHT22;3703;48.016;7.802;2022-08-11T15:00:19;35.00;1.00
7325;DHT22;3703;48.016;7.802;2022-08-11T15:03:07;35.00;1.00
7325;DHT22;3703;48.016;7.802;2022-08-11T15:05:58;34.90;1.00
7325;DHT22;3703;48.016;7.802;2022-08-11T15:08:48;35.00;1.00
7325;DHT22;3703;48.016;7.802;2022-08-11T15:11:42;34.90;1.00
7325;DHT22;3703;48.016;7.802;2022-08-11T15:14:49;34.80;1.00
7325;DHT22;3703;48.016;7.802;2022-08-11T15:17:58;34.70;1.00
7325;DHT22;3703;48.016;7.802;2022-08-11T15:20:46;34.60;1.00
7325;DHT22;3703;48.016;7.802;2022-08-11T15:23:53;34.70;1.00
7325;DHT22;3703;48.016;7.802;2022-08-11T15:27:00;34.50;1.00
7325;DHT22;3703;48.016;7.802;2022-08-11T15:30:08;34.40;1.00
7325;DHT22;3703;48.016;7.802;2022-08-11T15:33:15;34.20;1.00
7325;DHT22;3703;48.016;7.802;2022-08-11T15:36:22;34.20;1.00
7325;DHT22;3703;48.016;7.802;2022-08-11T15:39:33;34.10;1.00
7325;DHT22;3703;48.016;7.802;2022-08-11T15:42:22;34.10;1.00
7325;DHT22;3703;48.016;7.802;2022-08-11T15:45:29;34.00;1.00
7325;DHT22;3703;48.016;7.802;2022-08-11T15:48:42;34.00;1.00
7325;DHT22;3703;48.016;7.802;2022-08-11T15:51:35;34.00;1.00
7325;DHT22;3703;48.016;7.802;2022-08-11T15:54:26;34.00;1.00
7325;DHT22;3703;48.016;7.802;2022-08-11T15:57:19;33.80;1.00
7325;DHT22;3703;48.016;7.802;2022-08-11T16:00:21;33.80;1.00
7325;DHT22;3703;48.016;7.802;2022-08-11T16:03:28;33.60;1.00
7325;DHT22;3703;48.016;7.802;2022-08-11T16:06:35;33.40;1.00
7325;DHT22;3703;48.016;7.802;2022-08-11T16:09:34;33.50;1.00
7325;DHT22;3703;48.016;7.802;2022-08-11T16:12:28;33.50;1.00
7325;DHT22;3703;48.016;7.802;2022-08-11T16:15:18;33.40;1.00
7325;DHT22;3703;48.016;7.802;2022-08-11T16:18:27;33.20;1.00
7325;DHT22;3703;48.016;7.802;2022-08-11T16:21:29;33.20;1.00
7325;DHT22;3703;48.016;7.802;2022-08-11T16:24:20;33.00;1.00
7325;DHT22;3703;48.016;7.802;2022-08-11T16:27:11;32.90;1.00
7325;DHT22;3703;48.016;7.802;2022-08-11T16:29:59;32.70;1.00
7325;DHT22;3703;48.016;7.802;2022-08-11T16:32:50;32.60;1.00
7325;DHT22;3703;48.016;7.802;2022-08-11T16:35:38;32.60;1.00
7325;DHT22;3703;48.016;7.802;2022-08-11T16:38:45;32.60;1.00
7325;DHT22;3703;48.016;7.802;2022-08-11T16:41:35;32.40;1.00
7325;DHT22;3703;48.016;7.802;2022-08-11T16:44:42;32.30;1.00
7325;DHT22;3703;48.016;7.802;2022-08-11T16:47:48;32.30;1.00
7325;DHT22;3703;48.016;7.802;2022-08-11T16:50:38;32.10;1.00
7325;DHT22;3703;48.016;7.802;2022-08-11T16:53:28;32.10;1.00
7325;DHT22;3703;48.016;7.802;2022-08-11T16:56:19;32.00;1.00
7325;DHT22;3703;48.016;7.802;2022-08-11T16:59:12;31.70;1.00
7325;DHT22;3703;48.016;7.802;2022-08-11T17:02:06;31.70;1.00
7325;DHT22;3703;48.016;7.802;2022-08-11T17:04:56;31.40;1.00
7325;DHT22;3703;48.016;7.802;2022-08-11T17:08:04;31.40;1.00
7325;DHT22;3703;48.016;7.802;2022-08-11T17:11:11;31.30;1.00
7325;DHT22;3703;48.016;7.802;2022-08-11T17:14:20;31.30;1.00
7325;DHT22;3703;48.016;7.802;2022-08-11T17:17:13;31.00;1.00
7325;DHT22;3703;48.016;7.802;2022-08-11T17:20:04;30.90;1.00
7325;DHT22;3703;48.016;7.802;2022-08-11T17:22:55;30.90;1.00
7325;DHT22;3703;48.016;7.802;2022-08-11T17:26:02;30.90;1.00
7325;DHT22;3703;48.016;7.802;2022-08-11T17:28:53;30.80;1.00
7325;DHT22;3703;48.016;7.802;2022-08-11T17:31:44;30.70;1.00
7325;DHT22;3703;48.016;7.802;2022-08-11T17:34:54;30.70;1.00
7325;DHT22;3703;48.016;7.802;2022-08-11T17:38:02;30.70;1.00
7325;DHT22;3703;48.016;7.802;2022-08-11T17:40:54;30.60;1.00
7325;DHT22;3703;48.016;7.802;2022-08-11T17:44:02;31.00;1.00
7325;DHT22;3703;48.016;7.802;2022-08-11T17:47:08;30.60;1.00
7325;DHT22;3703;48.016;7.802;2022-08-11T17:50:16;30.50;1.00
7325;DHT22;3703;48.016;7.802;2022-08-11T17:53:04;30.50;1.00
7325;DHT22;3703;48.016;7.802;2022-08-11T17:56:10;30.40;1.00
7325;DHT22;3703;48.016;7.802;2022-08-11T17:59:17;30.40;1.00
7325;DHT22;3703;48.016;7.802;2022-08-11T18:02:29;30.20;1.00
7325;DHT22;3703;48.016;7.802;2022-08-11T18:05:41;30.20;1.00
7325;DHT22;3703;48.016;7.802;2022-08-11T18:08:31;29.90;1.00
7325;DHT22;3703;48.016;7.802;2022-08-11T18:11:37;29.90;1.00
7325;DHT22;3703;48.016;7.802;2022-08-11T18:14:45;29.90;1.00
7325;DHT22;3703;48.016;7.802;2022-08-11T18:17:52;29.70;1.00
7325;DHT22;3703;48.016;7.802;2022-08-11T18:20:58;29.70;1.00
7325;DHT22;3703;48.016;7.802;2022-08-11T18:24:07;29.70;1.00
7325;DHT22;3703;48.016;7.802;2022-08-11T18:27:16;29.60;1.00
7325;DHT22;3703;48.016;7.802;2022-08-11T18:30:23;29.60;1.00
7325;DHT22;3703;48.016;7.802;2022-08-11T18:33:34;29.50;1.00
7325;DHT22;3703;48.016;7.802;2022-08-11T18:36:49;29.40;1.00
7325;DHT22;3703;48.016;7.802;2022-08-11T18:39:59;29.30;1.00
7325;DHT22;3703;48.016;7.802;2022-08-11T18:43:10;29.20;1.00
7325;DHT22;3703;48.016;7.802;2022-08-11T18:46:17;29.20;1.00
7325;DHT22;3703;48.016;7.802;2022-08-11T18:49:26;29.20;1.00
7325;DHT22;3703;48.016;7.802;2022-08-11T18:52:33;29.10;1.00
7325;DHT22;3703;48.016;7.802;2022-08-11T18:55:40;29.00;1.00
7325;DHT22;3703;48.016;7.802;2022-08-11T18:58:49;28.90;1.00
7325;DHT22;3703;48.016;7.802;2022-08-11T19:01:54;28.90;1.00
7325;DHT22;3703;48.016;7.802;2022-08-11T19:05:01;28.80;1.00
7325;DHT22;3703;48.016;7.802;2022-08-11T19:08:10;28.80;1.00
7325;DHT22;3703;48.016;7.802;2022-08-11T19:11:16;28.70;1.00
7325;DHT22;3703;48.016;7.802;2022-08-11T19:14:24;28.70;1.00
7325;DHT22;3703;48.016;7.802;2022-08-11T19:17:30;28.60;1.00
7325;DHT22;3703;48.016;7.802;2022-08-11T19:20:37;28.50;1.00
7325;DHT22;3703;48.016;7.802;2022-08-11T19:23:50;28.40;1.00
7325;DHT22;3703;48.016;7.802;2022-08-11T19:26:58;28.40;1.00
7325;DHT22;3703;48.016;7.802;2022-08-11T19:30:04;28.40;1.00
7325;DHT22;3703;48.016;7.802;2022-08-11T19:33:10;28.30;1.00
7325;DHT22;3703;48.016;7.802;2022-08-11T19:36:16;28.30;1.00
7325;DHT22;3703;48.016;7.802;2022-08-11T19:39:25;28.30;1.00
7325;DHT22;3703;48.016;7.802;2022-08-11T19:42:32;28.30;1.00
7325;DHT22;3703;48.016;7.802;2022-08-11T19:45:37;28.20;1.00
7325;DHT22;3703;48.016;7.802;2022-08-11T19:48:45;28.20;1.00
7325;DHT22;3703;48.016;7.802;2022-08-11T19:51:53;28.10;1.00
7325;DHT22;3703;48.016;7.802;2022-08-11T19:55:03;27.50;1.00
7325;DHT22;3703;48.016;7.802;2022-08-11T19:58:10;26.70;1.00
7325;DHT22;3703;48.016;7.802;2022-08-11T20:01:15;26.30;1.00
7325;DHT22;3703;48.016;7.802;2022-08-11T20:04:21;26.20;1.00
7325;DHT22;3703;48.016;7.802;2022-08-11T20:07:26;26.20;8.40
7325;DHT22;3703;48.016;7.802;2022-08-11T20:10:35;26.20;9.30
7325;DHT22;3703;48.016;7.802;2022-08-11T20:13:42;26.20;16.60
7325;DHT22;3703;48.016;7.802;2022-08-11T20:16:50;26.30;16.50
7325;DHT22;3703;48.016;7.802;2022-08-11T20:19:56;26.30;15.00
7325;DHT22;3703;48.016;7.802;2022-08-11T20:23:05;26.30;20.50
7325;DHT22;3703;48.016;7.802;2022-08-11T20:26:14;26.30;28.50
7325;DHT22;3703;48.016;7.802;2022-08-11T20:29:23;26.40;41.90
7325;DHT22;3703;48.016;7.802;2022-08-11T20:32:30;26.40;45.50
7325;DHT22;3703;48.016;7.802;2022-08-11T20:35:36;26.40;44.40
7325;DHT22;3703;48.016;7.802;2022-08-11T20:38:43;26.40;38.90
7325;DHT22;3703;48.016;7.802;2022-08-11T20:41:51;26.50;40.10
7325;DHT22;3703;48.016;7.802;2022-08-11T20:44:59;26.40;32.30